Wind From: 11-12-2017 12:03 Until: 12-12-2017 06:00 warning for: Wind Level: Orange info button

Power and phone distribution networks may be disrupted for relatively long periods., Roofs and chimneys can be damaged. , Tree branches may break. , Vehicles can be deported. , Traffic may be disrupted, particularly on secondary roads in forest areas. Limit your trips. , Limit your speed in highway driving, especially if you drive a vehicle or hitch sensitive to wind. , Do not go for walks in forests or along the coast., In town, be vigilant against possible falling objects., Do not work on roofs and do not touch any electrical line fallen on the ground., Store or secure sensitive objects to wind or likely to be damaged., Always install power generators outside buildings. 


Meteo18 Weather Cam more information Meteo18 Weather Cam


Thunder radar more information blitzortung!


Rain radar more information rain snow radar


Visit our other weather sites:

Template documentation
and downloads

And another site



Weather Underground History page Text

Daily Summary for October 23, 2017 Units:  Both    English   Metric
« Previous Day
Next Day »
Daily Weekly Monthly Yearly Custom
  High: Low: Average:
Temperature: 54.9 °F /  12.7 °C 47.8 °F /  8.8 °C 51.4 °F /  10.8 °C
Dew Point: 52.2 °F /  11.2 °C 44.8 °F /  7.1 °C 48.2 °F /  9 °C
Humidity: 97 % 83 % 89 %
Wind Speed: 12 mph /  19.3 km/h - 3.3 mph /  5.3 km/h
Wind Gust: 14 mph /  22.5 km/h - -
Wind:- - WSW
Pressure: 30.3 in /  1027.0 hPa 30.3 in /  1024.9 hPa -
Precipitation: 0.02 in /  0.5 mm    
Historical Graphs
 
 
Tabular Data for October 23, 2017
Time Temperature Dew Point Pressure Wind Wind Speed Wind Gust Humidity Rainfall Rate (Hourly)
00:02 49.6 °F /  9.8 °C 45.3 °F /  7.4 °C 30.3 in /  1025.3 hPa SW 6 mph /  9.7 km/h 11 mph /  17.7 km/h 85 % 0 in /  0.0 mm
00:12 49.6 °F /  9.8 °C 45.3 °F /  7.4 °C 30.3 in /  1025.3 hPa SW 6 mph /  9.7 km/h 12 mph /  19.3 km/h 85 % 0 in /  0.0 mm
00:17 49.5 °F /  9.7 °C 45.1 °F /  7.3 °C 30.3 in /  1025.3 hPa West 5 mph /  8.0 km/h 12 mph /  19.3 km/h 85 % 0 in /  0.0 mm
00:22 49.6 °F /  9.8 °C 45.3 °F /  7.4 °C 30.3 in /  1025.3 hPa SW 5 mph /  8.0 km/h 14 mph /  22.5 km/h 85 % 0 in /  0.0 mm
00:32 49.6 °F /  9.8 °C 45.3 °F /  7.4 °C 30.3 in /  1025.6 hPa WSW 6 mph /  9.7 km/h 14 mph /  22.5 km/h 85 % 0 in /  0.0 mm
00:37 49.5 °F /  9.7 °C 45.1 °F /  7.3 °C 30.3 in /  1025.6 hPa WSW 5 mph /  8.0 km/h 14 mph /  22.5 km/h 85 % 0 in /  0.0 mm
00:42 49.5 °F /  9.7 °C 45.1 °F /  7.3 °C 30.3 in /  1025.3 hPa WSW 5 mph /  8.0 km/h 9 mph /  14.5 km/h 85 % 0 in /  0.0 mm
00:47 49.5 °F /  9.7 °C 45.1 °F /  7.3 °C 30.3 in /  1025.3 hPa West 6 mph /  9.7 km/h 7 mph /  11.3 km/h 85 % 0 in /  0.0 mm
00:57 49.3 °F /  9.6 °C 45.3 °F /  7.4 °C 30.3 in /  1025.6 hPa West 4 mph /  6.4 km/h 7 mph /  11.3 km/h 86 % 0 in /  0.0 mm
01:02 49.3 °F /  9.6 °C 45.3 °F /  7.4 °C 30.3 in /  1025.6 hPa West 1 mph /  1.6 km/h 7 mph /  11.3 km/h 86 % 0 in /  0.0 mm
01:12 49.3 °F /  9.6 °C 45.3 °F /  7.4 °C 30.3 in /  1025.3 hPa West 2 mph /  3.2 km/h 6 mph /  9.7 km/h 86 % 0 in /  0.0 mm
01:17 49.3 °F /  9.6 °C 45.3 °F /  7.4 °C 30.3 in /  1025.6 hPa WSW 1 mph /  1.6 km/h 4 mph /  6.4 km/h 86 % 0 in /  0.0 mm
01:22 49.3 °F /  9.6 °C 45.3 °F /  7.4 °C 30.3 in /  1025.3 hPa West 4 mph /  6.4 km/h 4 mph /  6.4 km/h 86 % 0 in /  0.0 mm
01:32 49.5 °F /  9.7 °C 45.1 °F /  7.3 °C 30.3 in /  1025.6 hPa West 2 mph /  3.2 km/h 8 mph /  12.9 km/h 85 % 0 in /  0.0 mm
01:37 49.6 °F /  9.8 °C 45.3 °F /  7.4 °C 30.3 in /  1025.3 hPa WSW 2 mph /  3.2 km/h 8 mph /  12.9 km/h 85 % 0 in /  0.0 mm
01:42 49.6 °F /  9.8 °C 45 °F /  7.2 °C 30.3 in /  1025.3 hPa WSW 2 mph /  3.2 km/h 8 mph /  12.9 km/h 84 % 0 in /  0.0 mm
01:47 49.6 °F /  9.8 °C 45 °F /  7.2 °C 30.3 in /  1025.3 hPa West 1 mph /  1.6 km/h 5 mph /  8.0 km/h 84 % 0 in /  0.0 mm
01:52 49.6 °F /  9.8 °C 45 °F /  7.2 °C 30.3 in /  1025.3 hPa WSW 5 mph /  8.0 km/h 5 mph /  8.0 km/h 84 % 0 in /  0.0 mm
01:57 49.6 °F /  9.8 °C 45 °F /  7.2 °C 30.3 in /  1025.3 hPa West 5 mph /  8.0 km/h 7 mph /  11.3 km/h 84 % 0 in /  0.0 mm
02:02 49.6 °F /  9.8 °C 45 °F /  7.2 °C 30.3 in /  1025.3 hPa Calm   7 mph /  11.3 km/h 84 % 0 in /  0.0 mm
02:07 49.6 °F /  9.8 °C 45 °F /  7.2 °C 30.3 in /  1025.3 hPa WSW 2 mph /  3.2 km/h 8 mph /  12.9 km/h 84 % 0 in /  0.0 mm
02:12 49.6 °F /  9.8 °C 45 °F /  7.2 °C 30.3 in /  1025.3 hPa SW 3 mph /  4.8 km/h 8 mph /  12.9 km/h 84 % 0 in /  0.0 mm
02:17 49.6 °F /  9.8 °C 45 °F /  7.2 °C 30.3 in /  1025.3 hPa West 5 mph /  8.0 km/h 6 mph /  9.7 km/h 84 % 0 in /  0.0 mm
02:22 49.6 °F /  9.8 °C 45 °F /  7.2 °C 30.3 in /  1025.3 hPa WSW 5 mph /  8.0 km/h 6 mph /  9.7 km/h 84 % 0 in /  0.0 mm
02:32 49.6 °F /  9.8 °C 45 °F /  7.2 °C 30.3 in /  1025.3 hPa WNW 1 mph /  1.6 km/h 6 mph /  9.7 km/h 84 % 0 in /  0.0 mm
02:37 49.6 °F /  9.8 °C 45 °F /  7.2 °C 30.3 in /  1025.3 hPa WSW 1 mph /  1.6 km/h 7 mph /  11.3 km/h 84 % 0 in /  0.0 mm
02:42 49.5 °F /  9.7 °C 44.8 °F /  7.1 °C 30.3 in /  1025.3 hPa West 1 mph /  1.6 km/h 7 mph /  11.3 km/h 84 % 0 in /  0.0 mm
02:47 49.5 °F /  9.7 °C 45.1 °F /  7.3 °C 30.3 in /  1025.3 hPa WSW 2 mph /  3.2 km/h 6 mph /  9.7 km/h 85 % 0 in /  0.0 mm
02:52 49.5 °F /  9.7 °C 45.1 °F /  7.3 °C 30.3 in /  1025.3 hPa SW 1 mph /  1.6 km/h 6 mph /  9.7 km/h 85 % 0 in /  0.0 mm
02:57 49.5 °F /  9.7 °C 45.1 °F /  7.3 °C 30.3 in /  1025.3 hPa Calm   7 mph /  11.3 km/h 85 % 0 in /  0.0 mm
03:02 49.3 °F /  9.6 °C 45 °F /  7.2 °C 30.3 in /  1025.3 hPa Calm   7 mph /  11.3 km/h 85 % 0 in /  0.0 mm
03:12 49.3 °F /  9.6 °C 45 °F /  7.2 °C 30.3 in /  1025.3 hPa NNW 1 mph /  1.6 km/h 7 mph /  11.3 km/h 85 % 0 in /  0.0 mm
03:17 49.3 °F /  9.6 °C 45 °F /  7.2 °C 30.3 in /  1025.3 hPa Calm   4 mph /  6.4 km/h 85 % 0 in /  0.0 mm
03:22 49.3 °F /  9.6 °C 45 °F /  7.2 °C 30.3 in /  1025.3 hPa Calm   4 mph /  6.4 km/h 85 % 0 in /  0.0 mm
03:27 49.3 °F /  9.6 °C 45.3 °F /  7.4 °C 30.3 in /  1024.9 hPa WSW 1 mph /  1.6 km/h 2 mph /  3.2 km/h 86 % 0 in /  0.0 mm
03:32 49.1 °F /  9.5 °C 45.1 °F /  7.3 °C 30.3 in /  1025.3 hPa WNW 1 mph /  1.6 km/h 2 mph /  3.2 km/h 86 % 0 in /  0.0 mm
03:37 49.3 °F /  9.6 °C 45.3 °F /  7.4 °C 30.3 in /  1025.3 hPa Calm   2 mph /  3.2 km/h 86 % 0 in /  0.0 mm
03:42 49.1 °F /  9.5 °C 45.1 °F /  7.3 °C 30.3 in /  1025.3 hPa Calm   2 mph /  3.2 km/h 86 % 0 in /  0.0 mm
03:52 49.3 °F /  9.6 °C 45.3 °F /  7.4 °C 30.3 in /  1025.3 hPa Calm   2 mph /  3.2 km/h 86 % 0 in /  0.0 mm
04:02 49.3 °F /  9.6 °C 45 °F /  7.2 °C 30.3 in /  1024.9 hPa Calm   3 mph /  4.8 km/h 85 % 0 in /  0.0 mm
04:07 49.3 °F /  9.6 °C 45 °F /  7.2 °C 30.3 in /  1024.9 hPa North 2 mph /  3.2 km/h 3 mph /  4.8 km/h 85 % 0 in /  0.0 mm
04:12 49.5 °F /  9.7 °C 45.1 °F /  7.3 °C 30.3 in /  1025.3 hPa WNW 1 mph /  1.6 km/h 3 mph /  4.8 km/h 85 % 0 in /  0.0 mm
04:17 49.5 °F /  9.7 °C 44.8 °F /  7.1 °C 30.3 in /  1024.9 hPa WSW 1 mph /  1.6 km/h 4 mph /  6.4 km/h 84 % 0 in /  0.0 mm
04:22 49.8 °F /  9.9 °C 45.1 °F /  7.3 °C 30.3 in /  1024.9 hPa NW 4 mph /  6.4 km/h 4 mph /  6.4 km/h 84 % 0 in /  0.0 mm
04:32 50 °F /  10.0 °C 45 °F /  7.2 °C 30.3 in /  1024.9 hPa WSW 3 mph /  4.8 km/h 8 mph /  12.9 km/h 83 % 0 in /  0.0 mm
04:37 49.8 °F /  9.9 °C 45.1 °F /  7.3 °C 30.3 in /  1024.9 hPa West 3 mph /  4.8 km/h 10 mph /  16.1 km/h 84 % 0 in /  0.0 mm
04:42 49.8 °F /  9.9 °C 45.1 °F /  7.3 °C 30.3 in /  1025.3 hPa West 2 mph /  3.2 km/h 10 mph /  16.1 km/h 84 % 0 in /  0.0 mm
04:47 49.8 °F /  9.9 °C 45.1 °F /  7.3 °C 30.3 in /  1024.9 hPa West 3 mph /  4.8 km/h 9 mph /  14.5 km/h 84 % 0 in /  0.0 mm
04:52 49.8 °F /  9.9 °C 45.1 °F /  7.3 °C 30.3 in /  1024.9 hPa WNW 5 mph /  8.0 km/h 9 mph /  14.5 km/h 84 % 0 in /  0.0 mm
05:02 49.6 °F /  9.8 °C 45.3 °F /  7.4 °C 30.3 in /  1024.9 hPa WSW 7 mph /  11.3 km/h 11 mph /  17.7 km/h 85 % 0 in /  0.0 mm
05:17 49.5 °F /  9.7 °C 45.1 °F /  7.3 °C 30.3 in /  1024.9 hPa WSW 4 mph /  6.4 km/h 11 mph /  17.7 km/h 85 % 0 in /  0.0 mm
05:22 49.6 °F /  9.8 °C 45.3 °F /  7.4 °C 30.3 in /  1024.9 hPa West 8 mph /  12.9 km/h 11 mph /  17.7 km/h 85 % 0 in /  0.0 mm
05:32 49.5 °F /  9.7 °C 45.1 °F /  7.3 °C 30.3 in /  1024.9 hPa West 4 mph /  6.4 km/h 10 mph /  16.1 km/h 85 % 0 in /  0.0 mm
05:42 49.5 °F /  9.7 °C 45.1 °F /  7.3 °C 30.3 in /  1025.3 hPa West 2 mph /  3.2 km/h 10 mph /  16.1 km/h 85 % 0 in /  0.0 mm
05:47 49.3 °F /  9.6 °C 45.3 °F /  7.4 °C 30.3 in /  1025.3 hPa WNW 5 mph /  8.0 km/h 10 mph /  16.1 km/h 86 % 0 in /  0.0 mm
05:52 49.3 °F /  9.6 °C 45.3 °F /  7.4 °C 30.3 in /  1025.3 hPa West 3 mph /  4.8 km/h 10 mph /  16.1 km/h 86 % 0 in /  0.0 mm
06:02 49.3 °F /  9.6 °C 45.3 °F /  7.4 °C 30.3 in /  1025.3 hPa WSW 6 mph /  9.7 km/h 8 mph /  12.9 km/h 86 % 0 in /  0.0 mm
06:12 49.5 °F /  9.7 °C 45.1 °F /  7.3 °C 30.3 in /  1025.3 hPa West 12 mph /  19.3 km/h 12 mph /  19.3 km/h 85 % 0 in /  0.0 mm
06:17 49.3 °F /  9.6 °C 45.3 °F /  7.4 °C 30.3 in /  1025.3 hPa WSW 5 mph /  8.0 km/h 12 mph /  19.3 km/h 86 % 0 in /  0.0 mm
06:22 49.3 °F /  9.6 °C 45.3 °F /  7.4 °C 30.3 in /  1025.3 hPa SW 3 mph /  4.8 km/h 12 mph /  19.3 km/h 86 % 0 in /  0.0 mm
06:27 49.3 °F /  9.6 °C 45.3 °F /  7.4 °C 30.3 in /  1025.3 hPa West 6 mph /  9.7 km/h 13 mph /  20.9 km/h 86 % 0 in /  0.0 mm
06:32 49.1 °F /  9.5 °C 45.1 °F /  7.3 °C 30.3 in /  1025.6 hPa WSW 4 mph /  6.4 km/h 13 mph /  20.9 km/h 86 % 0 in /  0.0 mm
06:37 49.1 °F /  9.5 °C 45.1 °F /  7.3 °C 30.3 in /  1025.6 hPa WSW 6 mph /  9.7 km/h 13 mph /  20.9 km/h 86 % 0 in /  0.0 mm
06:42 49.1 °F /  9.5 °C 45.1 °F /  7.3 °C 30.3 in /  1025.6 hPa West 5 mph /  8.0 km/h 13 mph /  20.9 km/h 86 % 0 in /  0.0 mm
06:47 48.9 °F /  9.4 °C 45.1 °F /  7.3 °C 30.3 in /  1025.6 hPa West 3 mph /  4.8 km/h 13 mph /  20.9 km/h 87 % 0 in /  0.0 mm
06:52 48.9 °F /  9.4 °C 45.1 °F /  7.3 °C 30.3 in /  1025.6 hPa WSW 6 mph /  9.7 km/h 13 mph /  20.9 km/h 87 % 0 in /  0.0 mm
06:57 48.7 °F /  9.3 °C 45 °F /  7.2 °C 30.3 in /  1025.6 hPa WSW 1 mph /  1.6 km/h 9 mph /  14.5 km/h 87 % 0 in /  0.0 mm
07:02 48.7 °F /  9.3 °C 45.3 °F /  7.4 °C 30.3 in /  1025.6 hPa West 3 mph /  4.8 km/h 9 mph /  14.5 km/h 88 % 0 in /  0.0 mm
07:12 48.6 °F /  9.2 °C 45.1 °F /  7.3 °C 30.3 in /  1025.3 hPa West 4 mph /  6.4 km/h 9 mph /  14.5 km/h 88 % 0 in /  0.0 mm
07:17 48.7 °F /  9.3 °C 45.3 °F /  7.4 °C 30.3 in /  1025.3 hPa WSW 6 mph /  9.7 km/h 9 mph /  14.5 km/h 88 % 0 in /  0.0 mm
07:27 48.7 °F /  9.3 °C 45.3 °F /  7.4 °C 30.3 in /  1025.6 hPa West 6 mph /  9.7 km/h 11 mph /  17.7 km/h 88 % 0 in /  0.0 mm
07:32 48.6 °F /  9.2 °C 45.1 °F /  7.3 °C 30.3 in /  1025.3 hPa WSW 7 mph /  11.3 km/h 11 mph /  17.7 km/h 88 % 0 in /  0.0 mm
07:42 48 °F /  8.9 °C 45.1 °F /  7.3 °C 30.3 in /  1025.3 hPa West 6 mph /  9.7 km/h 11 mph /  17.7 km/h 90 % 0 in /  0.0 mm
07:47 48 °F /  8.9 °C 45.1 °F /  7.3 °C 30.3 in /  1025.3 hPa West 4 mph /  6.4 km/h 12 mph /  19.3 km/h 90 % 0 in /  0.0 mm
07:52 48 °F /  8.9 °C 45.1 °F /  7.3 °C 30.3 in /  1025.3 hPa WSW 5 mph /  8.0 km/h 12 mph /  19.3 km/h 90 % 0 in /  0.0 mm
07:57 47.8 °F /  8.8 °C 45 °F /  7.2 °C 30.3 in /  1025.3 hPa WSW 7 mph /  11.3 km/h 12 mph /  19.3 km/h 90 % 0 in /  0.0 mm
08:02 47.8 °F /  8.8 °C 45 °F /  7.2 °C 30.3 in /  1025.3 hPa SW 4 mph /  6.4 km/h 12 mph /  19.3 km/h 90 % 0 in /  0.0 mm
08:12 47.8 °F /  8.8 °C 45 °F /  7.2 °C 30.3 in /  1025.6 hPa WSW 4 mph /  6.4 km/h 12 mph /  19.3 km/h 90 % 0 in /  0.0 mm
08:22 47.8 °F /  8.8 °C 45 °F /  7.2 °C 30.3 in /  1025.3 hPa West 5 mph /  8.0 km/h 9 mph /  14.5 km/h 90 % 0 in /  0.0 mm
08:32 48 °F /  8.9 °C 45.1 °F /  7.3 °C 30.3 in /  1025.3 hPa West 3 mph /  4.8 km/h 10 mph /  16.1 km/h 90 % 0 in /  0.0 mm
08:42 48.4 °F /  9.1 °C 45.3 °F /  7.4 °C 30.3 in /  1025.6 hPa WSW 5 mph /  8.0 km/h 10 mph /  16.1 km/h 89 % 0 in /  0.0 mm
08:52 48.4 °F /  9.1 °C 45.3 °F /  7.4 °C 30.3 in /  1025.6 hPa West 6 mph /  9.7 km/h 10 mph /  16.1 km/h 89 % 0 in /  0.0 mm
08:57 48.4 °F /  9.1 °C 45.3 °F /  7.4 °C 30.3 in /  1025.6 hPa WSW 8 mph /  12.9 km/h 11 mph /  17.7 km/h 89 % 0 in /  0.0 mm
09:02 48.4 °F /  9.1 °C 45.3 °F /  7.4 °C 30.3 in /  1025.6 hPa WSW 9 mph /  14.5 km/h 11 mph /  17.7 km/h 89 % 0 in /  0.0 mm
09:12 48.4 °F /  9.1 °C 45.5 °F /  7.5 °C 30.3 in /  1026.0 hPa WSW 5 mph /  8.0 km/h 12 mph /  19.3 km/h 90 % 0 in /  0.0 mm
09:17 48.2 °F /  9.0 °C 45.3 °F /  7.4 °C 30.3 in /  1026.0 hPa West 6 mph /  9.7 km/h 11 mph /  17.7 km/h 90 % 0 in /  0.0 mm
09:22 48.2 °F /  9.0 °C 45.3 °F /  7.4 °C 30.3 in /  1026.0 hPa West 8 mph /  12.9 km/h 11 mph /  17.7 km/h 90 % 0 in /  0.0 mm
09:32 48.4 °F /  9.1 °C 45.5 °F /  7.5 °C 30.3 in /  1026.3 hPa West 4 mph /  6.4 km/h 11 mph /  17.7 km/h 90 % 0 in /  0.0 mm
09:42 48.4 °F /  9.1 °C 45.5 °F /  7.5 °C 30.3 in /  1026.3 hPa SW 4 mph /  6.4 km/h 10 mph /  16.1 km/h 90 % 0 in /  0.0 mm
09:52 48.6 °F /  9.2 °C 45.7 °F /  7.6 °C 30.3 in /  1026.6 hPa West 6 mph /  9.7 km/h 10 mph /  16.1 km/h 90 % 0 in /  0.0 mm
10:02 48.7 °F /  9.3 °C 45.9 °F /  7.7 °C 30.3 in /  1026.6 hPa West 3 mph /  4.8 km/h 9 mph /  14.5 km/h 90 % 0 in /  0.0 mm
10:12 48.9 °F /  9.4 °C 46 °F /  7.8 °C 30.3 in /  1026.3 hPa SW 1 mph /  1.6 km/h 9 mph /  14.5 km/h 90 % 0 in /  0.0 mm
10:17 48.9 °F /  9.4 °C 46 °F /  7.8 °C 30.3 in /  1026.3 hPa WSW 5 mph /  8.0 km/h 8 mph /  12.9 km/h 90 % 0 in /  0.0 mm
10:27 49.1 °F /  9.5 °C 46.2 °F /  7.9 °C 30.3 in /  1026.3 hPa SSW 1 mph /  1.6 km/h 8 mph /  12.9 km/h 90 % 0 in /  0.0 mm
10:32 49.3 °F /  9.6 °C 46.4 °F /  8.0 °C 30.3 in /  1026.3 hPa WSW 5 mph /  8.0 km/h 8 mph /  12.9 km/h 90 % 0 in /  0.0 mm
10:37 49.5 °F /  9.7 °C 46.6 °F /  8.1 °C 30.3 in /  1026.6 hPa West 5 mph /  8.0 km/h 7 mph /  11.3 km/h 90 % 0 in /  0.0 mm
10:42 49.5 °F /  9.7 °C 46.6 °F /  8.1 °C 30.3 in /  1026.6 hPa WSW 2 mph /  3.2 km/h 7 mph /  11.3 km/h 90 % 0 in /  0.0 mm
10:47 49.6 °F /  9.8 °C 46.8 °F /  8.2 °C 30.3 in /  1026.6 hPa WSW 4 mph /  6.4 km/h 9 mph /  14.5 km/h 90 % 0 in /  0.0 mm
10:52 49.6 °F /  9.8 °C 46.6 °F /  8.1 °C 30.3 in /  1026.6 hPa West 2 mph /  3.2 km/h 9 mph /  14.5 km/h 89 % 0 in /  0.0 mm
10:57 49.6 °F /  9.8 °C 46.8 °F /  8.2 °C 30.3 in /  1026.6 hPa WSW 2 mph /  3.2 km/h 8 mph /  12.9 km/h 90 % 0 in /  0.0 mm
11:02 49.8 °F /  9.9 °C 46.9 °F /  8.3 °C 30.3 in /  1026.6 hPa SSW 1 mph /  1.6 km/h 8 mph /  12.9 km/h 90 % 0 in /  0.0 mm
11:12 49.8 °F /  9.9 °C 46.9 °F /  8.3 °C 30.3 in /  1026.6 hPa SW 3 mph /  4.8 km/h 7 mph /  11.3 km/h 90 % 0 in /  0.0 mm
11:17 49.8 °F /  9.9 °C 46.9 °F /  8.3 °C 30.3 in /  1026.3 hPa SW 3 mph /  4.8 km/h 6 mph /  9.7 km/h 90 % 0 in /  0.0 mm
11:22 50 °F /  10.0 °C 47.1 °F /  8.4 °C 30.3 in /  1026.3 hPa West 1 mph /  1.6 km/h 6 mph /  9.7 km/h 90 % 0 in /  0.0 mm
11:27 50.2 °F /  10.1 °C 47.3 °F /  8.5 °C 30.3 in /  1026.3 hPa SW 5 mph /  8.0 km/h 6 mph /  9.7 km/h 90 % 0 in /  0.0 mm
11:32 50.2 °F /  10.1 °C 47.7 °F /  8.7 °C 30.3 in /  1026.3 hPa West 5 mph /  8.0 km/h 6 mph /  9.7 km/h 91 % 0 in /  0.0 mm
11:37 50.4 °F /  10.2 °C 47.5 °F /  8.6 °C 30.3 in /  1026.3 hPa WSW 6 mph /  9.7 km/h 13 mph /  20.9 km/h 90 % 0 in /  0.0 mm
11:42 50.2 °F /  10.1 °C 47.7 °F /  8.7 °C 30.3 in /  1026.3 hPa SW 4 mph /  6.4 km/h 13 mph /  20.9 km/h 91 % 0 in /  0.0 mm
11:52 50.4 °F /  10.2 °C 47.5 °F /  8.6 °C 30.3 in /  1026.6 hPa West 7 mph /  11.3 km/h 12 mph /  19.3 km/h 90 % 0 in /  0.0 mm
12:12 50.9 °F /  10.5 °C 48 °F /  8.9 °C 30.3 in /  1026.6 hPa WSW 5 mph /  8.0 km/h 9 mph /  14.5 km/h 90 % 0 in /  0.0 mm
12:17 51.1 °F /  10.6 °C 48.2 °F /  9.0 °C 30.3 in /  1026.6 hPa WSW 1 mph /  1.6 km/h 7 mph /  11.3 km/h 90 % 0 in /  0.0 mm
12:22 51.3 °F /  10.7 °C 48.4 °F /  9.1 °C 30.3 in /  1026.6 hPa WSW 3 mph /  4.8 km/h 7 mph /  11.3 km/h 90 % 0 in /  0.0 mm
12:32 51.6 °F /  10.9 °C 48.6 °F /  9.2 °C 30.3 in /  1027.0 hPa Calm   7 mph /  11.3 km/h 89 % 0 in /  0.0 mm
12:37 51.8 °F /  11.0 °C 48.7 °F /  9.3 °C 30.3 in /  1027.0 hPa SW 2 mph /  3.2 km/h 7 mph /  11.3 km/h 89 % 0 in /  0.0 mm
12:42 52 °F /  11.1 °C 48.9 °F /  9.4 °C 30.3 in /  1027.0 hPa SSW 2 mph /  3.2 km/h 7 mph /  11.3 km/h 89 % 0 in /  0.0 mm
12:52 52.2 °F /  11.2 °C 48.7 °F /  9.3 °C 30.3 in /  1026.6 hPa WNW 3 mph /  4.8 km/h 7 mph /  11.3 km/h 88 % 0 in /  0.0 mm
12:57 52.3 °F /  11.3 °C 48.9 °F /  9.4 °C 30.3 in /  1026.6 hPa West 1 mph /  1.6 km/h 6 mph /  9.7 km/h 88 % 0 in /  0.0 mm
13:07 52.5 °F /  11.4 °C 48.7 °F /  9.3 °C 30.3 in /  1026.6 hPa West 1 mph /  1.6 km/h 7 mph /  11.3 km/h 87 % 0 in /  0.0 mm
13:12 52.7 °F /  11.5 °C 48.9 °F /  9.4 °C 30.3 in /  1026.6 hPa Calm   7 mph /  11.3 km/h 87 % 0 in /  0.0 mm
13:17 52.9 °F /  11.6 °C 49.1 °F /  9.5 °C 30.3 in /  1027.0 hPa West 3 mph /  4.8 km/h 7 mph /  11.3 km/h 87 % 0 in /  0.0 mm
13:22 53.1 °F /  11.7 °C 48.9 °F /  9.4 °C 30.3 in /  1026.6 hPa West 6 mph /  9.7 km/h 7 mph /  11.3 km/h 86 % 0 in /  0.0 mm
13:32 53.6 °F /  12.0 °C 49.5 °F /  9.7 °C 30.3 in /  1026.6 hPa SW 4 mph /  6.4 km/h 9 mph /  14.5 km/h 86 % 0 in /  0.0 mm
13:42 54 °F /  12.2 °C 49.3 °F /  9.6 °C 30.3 in /  1026.6 hPa WSW 3 mph /  4.8 km/h 9 mph /  14.5 km/h 84 % 0 in /  0.0 mm
13:47 54.1 °F /  12.3 °C 49.5 °F /  9.7 °C 30.3 in /  1026.6 hPa SW 4 mph /  6.4 km/h 9 mph /  14.5 km/h 84 % 0 in /  0.0 mm
13:52 54.3 °F /  12.4 °C 49.6 °F /  9.8 °C 30.3 in /  1026.6 hPa SW 3 mph /  4.8 km/h 9 mph /  14.5 km/h 84 % 0 in /  0.0 mm
14:02 54.7 °F /  12.6 °C 50.2 °F /  10.1 °C 30.3 in /  1026.3 hPa West 6 mph /  9.7 km/h 9 mph /  14.5 km/h 85 % 0 in /  0.0 mm
14:12 54.9 °F /  12.7 °C 50.2 °F /  10.1 °C 30.3 in /  1026.3 hPa SW 2 mph /  3.2 km/h 8 mph /  12.9 km/h 84 % 0 in /  0.0 mm
14:17 54.9 °F /  12.7 °C 49.8 °F /  9.9 °C 30.3 in /  1026.0 hPa SW 10 mph /  16.1 km/h 11 mph /  17.7 km/h 83 % 0 in /  0.0 mm
14:22 54.9 °F /  12.7 °C 50.2 °F /  10.1 °C 30.3 in /  1026.3 hPa WSW 3 mph /  4.8 km/h 11 mph /  17.7 km/h 84 % 0 in /  0.0 mm
14:32 54.9 °F /  12.7 °C 50.4 °F /  10.2 °C 30.3 in /  1026.3 hPa SW 2 mph /  3.2 km/h 11 mph /  17.7 km/h 85 % 0 in /  0.0 mm
14:37 54.7 °F /  12.6 °C 50.2 °F /  10.1 °C 30.3 in /  1026.3 hPa West 6 mph /  9.7 km/h 9 mph /  14.5 km/h 85 % 0 in /  0.0 mm
14:42 54.5 °F /  12.5 °C 50 °F /  10.0 °C 30.3 in /  1026.3 hPa West 4 mph /  6.4 km/h 9 mph /  14.5 km/h 85 % 0 in /  0.0 mm
14:52 54.5 °F /  12.5 °C 50 °F /  10.0 °C 30.3 in /  1026.3 hPa SW 1 mph /  1.6 km/h 10 mph /  16.1 km/h 85 % 0 in /  0.0 mm
14:57 54.5 °F /  12.5 °C 50 °F /  10.0 °C 30.3 in /  1026.3 hPa West 4 mph /  6.4 km/h 10 mph /  16.1 km/h 85 % 0 in /  0.0 mm
15:02 54.7 °F /  12.6 °C 50.2 °F /  10.1 °C 30.3 in /  1026.3 hPa SW 5 mph /  8.0 km/h 10 mph /  16.1 km/h 85 % 0 in /  0.0 mm
15:12 54.5 °F /  12.5 °C 50.4 °F /  10.2 °C 30.3 in /  1026.3 hPa West 5 mph /  8.0 km/h 10 mph /  16.1 km/h 86 % 0 in /  0.0 mm
15:17 54.5 °F /  12.5 °C 50.4 °F /  10.2 °C 30.3 in /  1026.3 hPa West 2 mph /  3.2 km/h 9 mph /  14.5 km/h 86 % 0 in /  0.0 mm
15:22 54.3 °F /  12.4 °C 50.2 °F /  10.1 °C 30.3 in /  1026.3 hPa WSW 7 mph /  11.3 km/h 9 mph /  14.5 km/h 86 % 0 in /  0.0 mm
15:27 54.3 °F /  12.4 °C 50.5 °F /  10.3 °C 30.3 in /  1026.3 hPa WSW 1 mph /  1.6 km/h 9 mph /  14.5 km/h 87 % 0 in /  0.0 mm
15:32 54.5 °F /  12.5 °C 50.7 °F /  10.4 °C 30.3 in /  1026.3 hPa West 4 mph /  6.4 km/h 9 mph /  14.5 km/h 87 % 0 in /  0.0 mm
15:37 54.5 °F /  12.5 °C 50.7 °F /  10.4 °C 30.3 in /  1026.3 hPa WSW 2 mph /  3.2 km/h 7 mph /  11.3 km/h 87 % 0 in /  0.0 mm
15:42 54.3 °F /  12.4 °C 50.5 °F /  10.3 °C 30.3 in /  1026.3 hPa WSW 2 mph /  3.2 km/h 7 mph /  11.3 km/h 87 % 0 in /  0.0 mm
15:47 54.3 °F /  12.4 °C 50.5 °F /  10.3 °C 30.3 in /  1026.3 hPa WSW 2 mph /  3.2 km/h 7 mph /  11.3 km/h 87 % 0 in /  0.0 mm
15:57 54.3 °F /  12.4 °C 50.9 °F /  10.5 °C 30.3 in /  1026.0 hPa SW 4 mph /  6.4 km/h 9 mph /  14.5 km/h 88 % 0 in /  0.0 mm
16:02 54.3 °F /  12.4 °C 51.1 °F /  10.6 °C 30.3 in /  1026.0 hPa WSW 3 mph /  4.8 km/h 9 mph /  14.5 km/h 89 % 0 in /  0.0 mm
16:12 54 °F /  12.2 °C 51.4 °F /  10.8 °C 30.3 in /  1026.0 hPa WSW 6 mph /  9.7 km/h 10 mph /  16.1 km/h 91 % 0 in /  0.0 mm
16:17 53.8 °F /  12.1 °C 51.3 °F /  10.7 °C 30.3 in /  1026.0 hPa SSW 5 mph /  8.0 km/h 8 mph /  12.9 km/h 91 % 0 in /  0.0 mm
16:22 53.8 °F /  12.1 °C 51.4 °F /  10.8 °C 30.3 in /  1026.0 hPa SW 5 mph /  8.0 km/h 8 mph /  12.9 km/h 92 % 0 in /  0.0 mm
16:27 53.6 °F /  12.0 °C 51.3 °F /  10.7 °C 30.3 in /  1026.0 hPa WSW 1 mph /  1.6 km/h 11 mph /  17.7 km/h 92 % 0 in /  0.0 mm
16:32 53.6 °F /  12.0 °C 51.3 °F /  10.7 °C 30.3 in /  1026.0 hPa Calm   11 mph /  17.7 km/h 92 % 0 in /  0.0 mm
16:37 53.4 °F /  11.9 °C 51.1 °F /  10.6 °C 30.3 in /  1026.0 hPa SW 8 mph /  12.9 km/h 10 mph /  16.1 km/h 92 % 0 in /  0.0 mm
16:42 53.4 °F /  11.9 °C 51.4 °F /  10.8 °C 30.3 in /  1026.0 hPa SW 3 mph /  4.8 km/h 10 mph /  16.1 km/h 93 % 0 in /  0.0 mm
16:47 53.2 °F /  11.8 °C 51.3 °F /  10.7 °C 30.3 in /  1026.0 hPa SW 4 mph /  6.4 km/h 10 mph /  16.1 km/h 93 % 0 in /  0.0 mm
16:52 53.2 °F /  11.8 °C 51.3 °F /  10.7 °C 30.3 in /  1026.0 hPa West 2 mph /  3.2 km/h 10 mph /  16.1 km/h 93 % 0 in /  0.0 mm
17:02 53.2 °F /  11.8 °C 51.3 °F /  10.7 °C 30.3 in /  1026.0 hPa WSW 4 mph /  6.4 km/h 8 mph /  12.9 km/h 93 % 0 in /  0.0 mm
17:07 53.4 °F /  11.9 °C 51.4 °F /  10.8 °C 30.3 in /  1026.0 hPa WSW 3 mph /  4.8 km/h 7 mph /  11.3 km/h 93 % 0 in /  0.0 mm
17:12 53.4 °F /  11.9 °C 51.1 °F /  10.6 °C 30.3 in /  1026.0 hPa SW 4 mph /  6.4 km/h 7 mph /  11.3 km/h 92 % 0 in /  0.0 mm
17:17 53.4 °F /  11.9 °C 51.1 °F /  10.6 °C 30.3 in /  1026.0 hPa WSW 7 mph /  11.3 km/h 9 mph /  14.5 km/h 92 % 0 in /  0.0 mm
17:22 53.6 °F /  12.0 °C 51.3 °F /  10.7 °C 30.3 in /  1026.0 hPa WSW 6 mph /  9.7 km/h 9 mph /  14.5 km/h 92 % 0 in /  0.0 mm
17:32 53.8 °F /  12.1 °C 51.4 °F /  10.8 °C 30.3 in /  1026.0 hPa SW 4 mph /  6.4 km/h 9 mph /  14.5 km/h 92 % 0 in /  0.0 mm
17:42 53.8 °F /  12.1 °C 51.4 °F /  10.8 °C 30.3 in /  1026.0 hPa SW 2 mph /  3.2 km/h 10 mph /  16.1 km/h 92 % 0 in /  0.0 mm
17:47 53.8 °F /  12.1 °C 51.4 °F /  10.8 °C 30.3 in /  1026.0 hPa WSW 3 mph /  4.8 km/h 7 mph /  11.3 km/h 92 % 0 in /  0.0 mm
17:52 53.8 °F /  12.1 °C 51.3 °F /  10.7 °C 30.3 in /  1026.0 hPa SW 4 mph /  6.4 km/h 7 mph /  11.3 km/h 91 % 0 in /  0.0 mm
17:57 53.8 °F /  12.1 °C 51.3 °F /  10.7 °C 30.3 in /  1026.0 hPa South 2 mph /  3.2 km/h 7 mph /  11.3 km/h 91 % 0 in /  0.0 mm
18:02 54 °F /  12.2 °C 51.4 °F /  10.8 °C 30.3 in /  1026.0 hPa WSW 7 mph /  11.3 km/h 7 mph /  11.3 km/h 91 % 0 in /  0.0 mm
18:12 54 °F /  12.2 °C 51.4 °F /  10.8 °C 30.3 in /  1026.0 hPa WSW 2 mph /  3.2 km/h 8 mph /  12.9 km/h 91 % 0 in /  0.0 mm
18:17 54 °F /  12.2 °C 51.4 °F /  10.8 °C 30.3 in /  1026.0 hPa SW 2 mph /  3.2 km/h 8 mph /  12.9 km/h 91 % 0 in /  0.0 mm
18:22 54 °F /  12.2 °C 51.4 °F /  10.8 °C 30.3 in /  1026.0 hPa WSW 4 mph /  6.4 km/h 8 mph /  12.9 km/h 91 % 0 in /  0.0 mm
18:27 54 °F /  12.2 °C 51.4 °F /  10.8 °C 30.3 in /  1026.0 hPa SW 2 mph /  3.2 km/h 8 mph /  12.9 km/h 91 % 0 in /  0.0 mm
18:32 54 °F /  12.2 °C 51.4 °F /  10.8 °C 30.3 in /  1026.0 hPa SW 1 mph /  1.6 km/h 5 mph /  8.0 km/h 91 % 0 in /  0.0 mm
18:37 54 °F /  12.2 °C 51.4 °F /  10.8 °C 30.3 in /  1026.0 hPa SW 1 mph /  1.6 km/h 5 mph /  8.0 km/h 91 % 0 in /  0.0 mm
18:42 54 °F /  12.2 °C 51.4 °F /  10.8 °C 30.3 in /  1026.0 hPa SW 2 mph /  3.2 km/h 5 mph /  8.0 km/h 91 % 0 in /  0.0 mm
18:47 54 °F /  12.2 °C 51.4 °F /  10.8 °C 30.3 in /  1026.3 hPa SW 2 mph /  3.2 km/h 4 mph /  6.4 km/h 91 % 0 in /  0.0 mm
18:52 54 °F /  12.2 °C 51.4 °F /  10.8 °C 30.3 in /  1026.3 hPa SW 1 mph /  1.6 km/h 4 mph /  6.4 km/h 91 % 0 in /  0.0 mm
18:57 54 °F /  12.2 °C 51.6 °F /  10.9 °C 30.3 in /  1026.3 hPa SSW 3 mph /  4.8 km/h 4 mph /  6.4 km/h 92 % 0 in /  0.0 mm
19:02 54 °F /  12.2 °C 51.6 °F /  10.9 °C 30.3 in /  1026.3 hPa SSW 1 mph /  1.6 km/h 4 mph /  6.4 km/h 92 % 0 in /  0.0 mm
19:12 54 °F /  12.2 °C 51.6 °F /  10.9 °C 30.3 in /  1026.6 hPa SSW 2 mph /  3.2 km/h 4 mph /  6.4 km/h 92 % 0 in /  0.0 mm
19:17 53.8 °F /  12.1 °C 51.4 °F /  10.8 °C 30.3 in /  1026.6 hPa South 2 mph /  3.2 km/h 4 mph /  6.4 km/h 92 % 0 in /  0.0 mm
19:22 53.8 °F /  12.1 °C 51.4 °F /  10.8 °C 30.3 in /  1026.6 hPa SSW 4 mph /  6.4 km/h 4 mph /  6.4 km/h 92 % 0 in /  0.0 mm
19:27 53.8 °F /  12.1 °C 51.4 °F /  10.8 °C 30.3 in /  1026.6 hPa SW 3 mph /  4.8 km/h 4 mph /  6.4 km/h 92 % 0 in /  0.0 mm
19:32 53.8 °F /  12.1 °C 51.4 °F /  10.8 °C 30.3 in /  1026.6 hPa SSW 1 mph /  1.6 km/h 4 mph /  6.4 km/h 92 % 0 in /  0.0 mm
19:37 53.8 °F /  12.1 °C 51.4 °F /  10.8 °C 30.3 in /  1026.6 hPa SW 2 mph /  3.2 km/h 4 mph /  6.4 km/h 92 % 0 in /  0.0 mm
19:42 53.6 °F /  12.0 °C 51.3 °F /  10.7 °C 30.3 in /  1026.6 hPa SSW 2 mph /  3.2 km/h 4 mph /  6.4 km/h 92 % 0 in /  0.0 mm
19:47 53.4 °F /  11.9 °C 51.4 °F /  10.8 °C 30.3 in /  1026.6 hPa SSW 2 mph /  3.2 km/h 5 mph /  8.0 km/h 93 % 0 in /  0.0 mm
19:52 53.4 °F /  11.9 °C 51.4 °F /  10.8 °C 30.3 in /  1026.6 hPa SSW 1 mph /  1.6 km/h 5 mph /  8.0 km/h 93 % 0 in /  0.0 mm
19:57 53.2 °F /  11.8 °C 51.3 °F /  10.7 °C 30.3 in /  1026.6 hPa SSW 1 mph /  1.6 km/h 5 mph /  8.0 km/h 93 % 0 in /  0.0 mm
20:02 53.2 °F /  11.8 °C 51.6 °F /  10.9 °C 30.3 in /  1026.6 hPa SSW 3 mph /  4.8 km/h 5 mph /  8.0 km/h 94 % 0 in /  0.0 mm
20:07 53.1 °F /  11.7 °C 51.4 °F /  10.8 °C 30.3 in /  1026.6 hPa SSW 2 mph /  3.2 km/h 5 mph /  8.0 km/h 94 % 0 in /  0.0 mm
20:12 53.1 °F /  11.7 °C 51.4 °F /  10.8 °C 30.3 in /  1026.6 hPa SSW 4 mph /  6.4 km/h 5 mph /  8.0 km/h 94 % 0 in /  0.0 mm
20:17 53.1 °F /  11.7 °C 51.4 °F /  10.8 °C 30.3 in /  1026.6 hPa SSW 1 mph /  1.6 km/h 5 mph /  8.0 km/h 94 % 0 in /  0.0 mm
20:22 52.9 °F /  11.6 °C 51.3 °F /  10.7 °C 30.3 in /  1026.6 hPa SSE 2 mph /  3.2 km/h 5 mph /  8.0 km/h 94 % 0 in /  0.0 mm
20:32 52.9 °F /  11.6 °C 51.4 °F /  10.8 °C 30.3 in /  1026.6 hPa Calm   4 mph /  6.4 km/h 95 % 0 in /  0.0 mm
20:37 52.9 °F /  11.6 °C 51.4 °F /  10.8 °C 30.3 in /  1026.6 hPa SSW 1 mph /  1.6 km/h 3 mph /  4.8 km/h 95 % 0 in /  0.0 mm
20:42 52.9 °F /  11.6 °C 51.4 °F /  10.8 °C 30.3 in /  1026.6 hPa SSW 3 mph /  4.8 km/h 3 mph /  4.8 km/h 95 % 0 in /  0.0 mm
20:47 52.9 °F /  11.6 °C 51.4 °F /  10.8 °C 30.3 in /  1026.6 hPa SSW 3 mph /  4.8 km/h 6 mph /  9.7 km/h 95 % 0 in /  0.0 mm
20:52 52.9 °F /  11.6 °C 51.4 °F /  10.8 °C 30.3 in /  1026.6 hPa SW 3 mph /  4.8 km/h 6 mph /  9.7 km/h 95 % 0 in /  0.0 mm
20:57 52.9 °F /  11.6 °C 51.4 °F /  10.8 °C 30.3 in /  1026.6 hPa SSW 2 mph /  3.2 km/h 5 mph /  8.0 km/h 95 % 0 in /  0.0 mm
21:02 52.9 °F /  11.6 °C 51.4 °F /  10.8 °C 30.3 in /  1026.6 hPa SW 4 mph /  6.4 km/h 5 mph /  8.0 km/h 95 % 0 in /  0.0 mm
21:12 52.7 °F /  11.5 °C 51.3 °F /  10.7 °C 30.3 in /  1026.6 hPa South 1 mph /  1.6 km/h 6 mph /  9.7 km/h 95 % 0.01 in /  0.3 mm
21:17 52.7 °F /  11.5 °C 51.3 °F /  10.7 °C 30.3 in /  1026.6 hPa SSW 2 mph /  3.2 km/h 6 mph /  9.7 km/h 95 % 0.01 in /  0.3 mm
21:22 52.7 °F /  11.5 °C 51.3 °F /  10.7 °C 30.3 in /  1026.6 hPa SSW 2 mph /  3.2 km/h 6 mph /  9.7 km/h 95 % 0.01 in /  0.3 mm
21:32 52.5 °F /  11.4 °C 51.4 °F /  10.8 °C 30.3 in /  1026.6 hPa SSW 2 mph /  3.2 km/h 5 mph /  8.0 km/h 96 % 0.01 in /  0.3 mm
21:37 52.5 °F /  11.4 °C 51.4 °F /  10.8 °C 30.3 in /  1026.6 hPa South 2 mph /  3.2 km/h 7 mph /  11.3 km/h 96 % 0.01 in /  0.3 mm
21:42 52.5 °F /  11.4 °C 51.4 °F /  10.8 °C 30.3 in /  1026.6 hPa SSW 1 mph /  1.6 km/h 7 mph /  11.3 km/h 96 % 0.01 in /  0.3 mm
21:47 52.5 °F /  11.4 °C 51.4 °F /  10.8 °C 30.3 in /  1026.6 hPa SW 3 mph /  4.8 km/h 5 mph /  8.0 km/h 96 % 0.01 in /  0.3 mm
22:02 52.5 °F /  11.4 °C 51.4 °F /  10.8 °C 30.3 in /  1026.6 hPa SSW 3 mph /  4.8 km/h 6 mph /  9.7 km/h 96 % 0.01 in /  0.3 mm
22:07 52.5 °F /  11.4 °C 51.4 °F /  10.8 °C 30.3 in /  1026.6 hPa SSW 3 mph /  4.8 km/h 5 mph /  8.0 km/h 96 % 0 in /  0.0 mm
22:12 52.5 °F /  11.4 °C 51.4 °F /  10.8 °C 30.3 in /  1026.6 hPa SW 5 mph /  8.0 km/h 5 mph /  8.0 km/h 96 % 0 in /  0.0 mm
22:17 52.5 °F /  11.4 °C 51.4 °F /  10.8 °C 30.3 in /  1026.6 hPa South 3 mph /  4.8 km/h 6 mph /  9.7 km/h 96 % 0 in /  0.0 mm
22:22 52.5 °F /  11.4 °C 51.4 °F /  10.8 °C 30.3 in /  1026.6 hPa SSW 6 mph /  9.7 km/h 6 mph /  9.7 km/h 96 % 0 in /  0.0 mm
22:32 52.5 °F /  11.4 °C 51.4 °F /  10.8 °C 30.3 in /  1026.6 hPa SSW 2 mph /  3.2 km/h 6 mph /  9.7 km/h 96 % 0 in /  0.0 mm
22:37 52.5 °F /  11.4 °C 51.4 °F /  10.8 °C 30.3 in /  1026.6 hPa SSW 4 mph /  6.4 km/h 6 mph /  9.7 km/h 96 % 0 in /  0.0 mm
22:42 52.7 °F /  11.5 °C 51.6 °F /  10.9 °C 30.3 in /  1026.6 hPa SW 1 mph /  1.6 km/h 6 mph /  9.7 km/h 96 % 0 in /  0.0 mm
22:47 52.7 °F /  11.5 °C 51.6 °F /  10.9 °C 30.3 in /  1026.6 hPa SSW 3 mph /  4.8 km/h 6 mph /  9.7 km/h 96 % 0 in /  0.0 mm
22:52 52.9 °F /  11.6 °C 51.8 °F /  11.0 °C 30.3 in /  1026.6 hPa SW 3 mph /  4.8 km/h 6 mph /  9.7 km/h 96 % 0 in /  0.0 mm
22:57 52.9 °F /  11.6 °C 51.8 °F /  11.0 °C 30.3 in /  1026.6 hPa SSW 4 mph /  6.4 km/h 7 mph /  11.3 km/h 96 % 0 in /  0.0 mm
23:02 52.9 °F /  11.6 °C 51.8 °F /  11.0 °C 30.3 in /  1026.6 hPa SSW 2 mph /  3.2 km/h 7 mph /  11.3 km/h 96 % 0 in /  0.0 mm
23:12 52.9 °F /  11.6 °C 51.8 °F /  11.0 °C 30.3 in /  1026.6 hPa SW 5 mph /  8.0 km/h 7 mph /  11.3 km/h 96 % 0.01 in /  0.3 mm
23:17 52.9 °F /  11.6 °C 51.8 °F /  11.0 °C 30.3 in /  1026.6 hPa SW 3 mph /  4.8 km/h 7 mph /  11.3 km/h 96 % 0.01 in /  0.3 mm
23:22 52.9 °F /  11.6 °C 52 °F /  11.1 °C 30.3 in /  1026.6 hPa SSW 2 mph /  3.2 km/h 7 mph /  11.3 km/h 97 % 0.01 in /  0.3 mm
23:27 52.9 °F /  11.6 °C 52 °F /  11.1 °C 30.3 in /  1026.6 hPa SSW 3 mph /  4.8 km/h 6 mph /  9.7 km/h 97 % 0.01 in /  0.3 mm
23:32 52.9 °F /  11.6 °C 52 °F /  11.1 °C 30.3 in /  1026.6 hPa SW 3 mph /  4.8 km/h 6 mph /  9.7 km/h 97 % 0.01 in /  0.3 mm
23:42 52.9 °F /  11.6 °C 52 °F /  11.1 °C 30.3 in /  1026.6 hPa SSW 3 mph /  4.8 km/h 6 mph /  9.7 km/h 97 % 0.01 in /  0.3 mm
23:47 53.1 °F /  11.7 °C 52.2 °F /  11.2 °C 30.3 in /  1026.6 hPa SW 2 mph /  3.2 km/h 6 mph /  9.7 km/h 97 % 0.01 in /  0.3 mm
23:52 53.1 °F /  11.7 °C 52.2 °F /  11.2 °C 30.3 in /  1026.6 hPa SW 2 mph /  3.2 km/h 6 mph /  9.7 km/h 97 % 0.01 in /  0.3 mm
Meteo18
Compliments of Weather Underground - 4 mb

Script developed by  Jim McMurry - jmcmurry@mwt.net Adapted for the template by  Wim van der Kuil - Leuven-Template.eu

You find our weather info also at:

European Weather Network

Weather Underground

Equipment we use:

Weather-station
Davis Vue

Weather-program
Meteohub

Weather-server
Raspberry PI 2 B+

Provider
1 and 1

Davis Vue

Meteohub

Raspberry PI 2 B+

1 and 1